sensor_id;sensor_type;location;lat;lon;timestamp;temperature;humidity
38221;DHT22;24023;51.280;7.148;2023-09-08T00:00:12;20.4;90.0
38221;DHT22;24023;51.280;7.148;2023-09-08T00:05:06;20.4;90.0
38221;DHT22;24023;51.280;7.148;2023-09-08T00:10:08;21.1;85.1
38221;DHT22;24023;51.280;7.148;2023-09-08T00:15:08;21.6;83.0
38221;DHT22;24023;51.280;7.148;2023-09-08T00:20:10;21.6;83.0
38221;DHT22;24023;51.280;7.148;2023-09-08T00:25:06;22.1;80.9
38221;DHT22;24023;51.280;7.148;2023-09-08T00:30:10;22.1;80.9
38221;DHT22;24023;51.280;7.148;2023-09-08T00:35:06;22.2;81.1
38221;DHT22;24023;51.280;7.148;2023-09-08T00:40:08;22.3;78.9
38221;DHT22;24023;51.280;7.148;2023-09-08T00:45:09;22.3;78.9
38221;DHT22;24023;51.280;7.148;2023-09-08T00:50:08;22.3;78.9
38221;DHT22;24023;51.280;7.148;2023-09-08T00:55:06;22.3;79.2
38221;DHT22;24023;51.280;7.148;2023-09-08T01:00:13;22.3;79.2
38221;DHT22;24023;51.280;7.148;2023-09-08T01:05:06;22.2;79.4
38221;DHT22;24023;51.280;7.148;2023-09-08T01:10:08;22.2;79.4
38221;DHT22;24023;51.280;7.148;2023-09-08T01:15:08;22.2;79.4
38221;DHT22;24023;51.280;7.148;2023-09-08T01:20:18;22.2;78.9
38221;DHT22;24023;51.280;7.148;2023-09-08T01:25:12;22.2;78.9
38221;DHT22;24023;51.280;7.148;2023-09-08T01:30:09;22.0;79.2
38221;DHT22;24023;51.280;7.148;2023-09-08T01:35:07;22.0;79.2
38221;DHT22;24023;51.280;7.148;2023-09-08T01:40:08;22.0;79.0
38221;DHT22;24023;51.280;7.148;2023-09-08T01:45:09;22.0;79.0
38221;DHT22;24023;51.280;7.148;2023-09-08T01:50:08;22.0;79.0
38221;DHT22;24023;51.280;7.148;2023-09-08T01:55:06;21.9;79.0
38221;DHT22;24023;51.280;7.148;2023-09-08T02:00:12;22.0;78.9
38221;DHT22;24023;51.280;7.148;2023-09-08T02:05:07;22.0;78.9
38221;DHT22;24023;51.280;7.148;2023-09-08T02:10:08;21.8;78.9
38221;DHT22;24023;51.280;7.148;2023-09-08T02:15:08;21.8;78.9
38221;DHT22;24023;51.280;7.148;2023-09-08T02:20:08;21.9;78.8
38221;DHT22;24023;51.280;7.148;2023-09-08T02:25:07;21.9;78.8
38221;DHT22;24023;51.280;7.148;2023-09-08T02:30:10;21.8;78.4
38221;DHT22;24023;51.280;7.148;2023-09-08T02:35:07;21.8;78.4
38221;DHT22;24023;51.280;7.148;2023-09-08T02:40:08;21.8;78.4
38221;DHT22;24023;51.280;7.148;2023-09-08T02:45:11;21.9;78.0
38221;DHT22;24023;51.280;7.148;2023-09-08T02:50:08;21.9;78.0
38221;DHT22;24023;51.280;7.148;2023-09-08T02:55:06;21.8;78.0
38221;DHT22;24023;51.280;7.148;2023-09-08T03:00:14;21.8;78.0
38221;DHT22;24023;51.280;7.148;2023-09-08T03:05:07;21.7;77.7
38221;DHT22;24023;51.280;7.148;2023-09-08T03:10:08;21.7;77.7
38221;DHT22;24023;51.280;7.148;2023-09-08T03:15:08;21.7;77.7
38221;DHT22;24023;51.280;7.148;2023-09-08T03:20:10;21.7;77.8
38221;DHT22;24023;51.280;7.148;2023-09-08T03:25:07;21.7;77.8
38221;DHT22;24023;51.280;7.148;2023-09-08T03:30:10;21.6;78.7
38221;DHT22;24023;51.280;7.148;2023-09-08T03:35:08;21.6;78.7
38221;DHT22;24023;51.280;7.148;2023-09-08T03:40:08;21.2;82.1
38221;DHT22;24023;51.280;7.148;2023-09-08T03:45:09;19.7;86.4
38221;DHT22;24023;51.280;7.148;2023-09-08T03:50:08;19.7;86.4
38221;DHT22;24023;51.280;7.148;2023-09-08T03:55:06;19.3;88.6
38221;DHT22;24023;51.280;7.148;2023-09-08T04:00:13;19.3;88.6
38221;DHT22;24023;51.280;7.148;2023-09-08T04:05:06;19.3;88.6
38221;DHT22;24023;51.280;7.148;2023-09-08T04:10:08;19.2;87.6
38221;DHT22;24023;51.280;7.148;2023-09-08T04:15:09;19.2;87.6
38221;DHT22;24023;51.280;7.148;2023-09-08T04:20:08;19.1;89.6
38221;DHT22;24023;51.280;7.148;2023-09-08T04:25:07;19.1;89.6
38221;DHT22;24023;51.280;7.148;2023-09-08T04:30:09;19.2;87.2
38221;DHT22;24023;51.280;7.148;2023-09-08T04:35:10;19.2;87.2
38221;DHT22;24023;51.280;7.148;2023-09-08T04:40:08;19.0;89.3
38221;DHT22;24023;51.280;7.148;2023-09-08T04:45:09;19.0;89.3
38221;DHT22;24023;51.280;7.148;2023-09-08T04:50:08;19.0;89.3
38221;DHT22;24023;51.280;7.148;2023-09-08T04:55:07;19.0;88.7
38221;DHT22;24023;51.280;7.148;2023-09-08T05:00:13;19.0;88.7
38221;DHT22;24023;51.280;7.148;2023-09-08T05:05:07;18.7;90.0
38221;DHT22;24023;51.280;7.148;2023-09-08T05:10:07;18.7;90.0
38221;DHT22;24023;51.280;7.148;2023-09-08T05:15:11;18.7;90.0
38221;DHT22;24023;51.280;7.148;2023-09-08T05:20:09;18.8;89.7
38221;DHT22;24023;51.280;7.148;2023-09-08T05:25:06;18.8;89.7
38221;DHT22;24023;51.280;7.148;2023-09-08T05:30:09;18.9;90.0
38221;DHT22;24023;51.280;7.148;2023-09-08T05:35:06;18.9;90.0
38221;DHT22;24023;51.280;7.148;2023-09-08T05:40:08;18.9;90.0
38221;DHT22;24023;51.280;7.148;2023-09-08T05:45:09;19.4;89.1
38221;DHT22;24023;51.280;7.148;2023-09-08T05:50:08;19.4;89.1
38221;DHT22;24023;51.280;7.148;2023-09-08T05:55:06;19.4;89.3
38221;DHT22;24023;51.280;7.148;2023-09-08T06:00:13;19.4;89.3
38221;DHT22;24023;51.280;7.148;2023-09-08T06:05:06;19.7;90.1
38221;DHT22;24023;51.280;7.148;2023-09-08T06:10:08;19.7;90.1
38221;DHT22;24023;51.280;7.148;2023-09-08T06:15:08;20.2;89.9
38221;DHT22;24023;51.280;7.148;2023-09-08T06:20:08;20.2;89.9
38221;DHT22;24023;51.280;7.148;2023-09-08T06:25:06;20.2;89.9
38221;DHT22;24023;51.280;7.148;2023-09-08T06:30:11;20.7;89.2
38221;DHT22;24023;51.280;7.148;2023-09-08T06:35:06;21.0;85.4
38221;DHT22;24023;51.280;7.148;2023-09-08T06:40:08;21.3;82.5
38221;DHT22;24023;51.280;7.148;2023-09-08T06:45:09;21.7;82.0
38221;DHT22;24023;51.280;7.148;2023-09-08T06:50:08;22.1;78.9
38221;DHT22;24023;51.280;7.148;2023-09-08T06:55:07;22.1;78.9
38221;DHT22;24023;51.280;7.148;2023-09-08T07:00:13;22.1;78.9
38221;DHT22;24023;51.280;7.148;2023-09-08T07:05:08;22.4;78.3
38221;DHT22;24023;51.280;7.148;2023-09-08T07:10:08;22.4;78.3
38221;DHT22;24023;51.280;7.148;2023-09-08T07:15:09;22.8;78.2
38221;DHT22;24023;51.280;7.148;2023-09-08T07:20:08;22.8;78.2
38221;DHT22;24023;51.280;7.148;2023-09-08T07:25:07;22.8;78.2
38221;DHT22;24023;51.280;7.148;2023-09-08T07:30:09;22.9;78.2
38221;DHT22;24023;51.280;7.148;2023-09-08T07:35:14;22.8;78.8
38221;DHT22;24023;51.280;7.148;2023-09-08T07:40:09;23.1;78.9
38221;DHT22;24023;51.280;7.148;2023-09-08T07:45:10;23.1;81.0
38221;DHT22;24023;51.280;7.148;2023-09-08T07:50:24;23.3;78.4
38221;DHT22;24023;51.280;7.148;2023-09-08T07:55:06;23.5;78.2
38221;DHT22;24023;51.280;7.148;2023-09-08T08:00:14;23.5;78.2
38221;DHT22;24023;51.280;7.148;2023-09-08T08:05:07;23.5;78.2
38221;DHT22;24023;51.280;7.148;2023-09-08T08:10:08;24.1;77.8
38221;DHT22;24023;51.280;7.148;2023-09-08T08:15:09;24.1;77.8
38221;DHT22;24023;51.280;7.148;2023-09-08T08:20:11;24.3;77.5
38221;DHT22;24023;51.280;7.148;2023-09-08T08:25:06;24.5;74.7
38221;DHT22;24023;51.280;7.148;2023-09-08T08:30:12;24.5;74.7
38221;DHT22;24023;51.280;7.148;2023-09-08T08:35:05;24.6;74.6
38221;DHT22;24023;51.280;7.148;2023-09-08T08:40:10;24.6;74.6
38221;DHT22;24023;51.280;7.148;2023-09-08T08:45:09;24.6;74.6
38221;DHT22;24023;51.280;7.148;2023-09-08T08:50:08;25.1;74.3
38221;DHT22;24023;51.280;7.148;2023-09-08T08:55:07;25.1;74.3
38221;DHT22;24023;51.280;7.148;2023-09-08T09:00:13;25.5;75.5
38221;DHT22;24023;51.280;7.148;2023-09-08T09:05:08;25.5;75.5
38221;DHT22;24023;51.280;7.148;2023-09-08T09:10:08;25.8;73.1
38221;DHT22;24023;51.280;7.148;2023-09-08T09:15:09;25.8;73.1
38221;DHT22;24023;51.280;7.148;2023-09-08T09:20:17;26.2;73.2
38221;DHT22;24023;51.280;7.148;2023-09-08T09:25:08;26.2;73.2
38221;DHT22;24023;51.280;7.148;2023-09-08T09:30:10;26.2;73.2
38221;DHT22;24023;51.280;7.148;2023-09-08T09:35:07;26.7;73.1
38221;DHT22;24023;51.280;7.148;2023-09-08T09:40:09;26.8;70.7
38221;DHT22;24023;51.280;7.148;2023-09-08T09:45:10;26.8;70.7
38221;DHT22;24023;51.280;7.148;2023-09-08T09:50:08;27.2;72.4
38221;DHT22;24023;51.280;7.148;2023-09-08T09:55:07;27.2;72.4
38221;DHT22;24023;51.280;7.148;2023-09-08T10:00:12;27.8;70.2
38221;DHT22;24023;51.280;7.148;2023-09-08T10:05:11;27.8;70.2
38221;DHT22;24023;51.280;7.148;2023-09-08T10:10:09;28.1;70.5
38221;DHT22;24023;51.280;7.148;2023-09-08T10:15:10;28.3;68.4
38221;DHT22;24023;51.280;7.148;2023-09-08T10:20:13;28.3;68.4
38221;DHT22;24023;51.280;7.148;2023-09-08T10:25:06;28.6;68.9
38221;DHT22;24023;51.280;7.148;2023-09-08T10:30:09;28.6;68.9
38221;DHT22;24023;51.280;7.148;2023-09-08T10:35:07;28.6;68.9
38221;DHT22;24023;51.280;7.148;2023-09-08T10:40:23;29.0;66.4
38221;DHT22;24023;51.280;7.148;2023-09-08T10:45:15;29.0;66.4
38221;DHT22;24023;51.280;7.148;2023-09-08T10:50:16;29.4;67.1
38221;DHT22;24023;51.280;7.148;2023-09-08T10:55:07;29.4;67.1
38221;DHT22;24023;51.280;7.148;2023-09-08T11:00:18;29.4;66.0
38221;DHT22;24023;51.280;7.148;2023-09-08T11:05:07;29.4;66.0
38221;DHT22;24023;51.280;7.148;2023-09-08T11:10:10;29.5;65.4
38221;DHT22;24023;51.280;7.148;2023-09-08T11:15:09;29.5;65.4
38221;DHT22;24023;51.280;7.148;2023-09-08T11:20:10;29.6;67.7
38221;DHT22;24023;51.280;7.148;2023-09-08T11:25:07;29.6;65.5
38221;DHT22;24023;51.280;7.148;2023-09-08T11:30:10;29.6;65.5
38221;DHT22;24023;51.280;7.148;2023-09-08T11:35:09;29.6;65.5
38221;DHT22;24023;51.280;7.148;2023-09-08T11:40:10;29.3;66.5
38221;DHT22;24023;51.280;7.148;2023-09-08T11:45:11;29.1;66.4
38221;DHT22;24023;51.280;7.148;2023-09-08T11:50:09;29.1;66.4
38221;DHT22;24023;51.280;7.148;2023-09-08T11:55:06;28.9;67.3
38221;DHT22;24023;51.280;7.148;2023-09-08T12:00:17;28.9;67.3
38221;DHT22;24023;51.280;7.148;2023-09-08T12:05:11;28.9;67.3
38221;DHT22;24023;51.280;7.148;2023-09-08T12:10:11;29.1;66.2
38221;DHT22;24023;51.280;7.148;2023-09-08T12:15:07;29.1;66.2
38221;DHT22;24023;51.280;7.148;2023-09-08T12:20:13;29.3;65.8
38221;DHT22;24023;51.280;7.148;2023-09-08T12:25:08;29.3;63.6
38221;DHT22;24023;51.280;7.148;2023-09-08T12:30:16;29.1;65.8
38221;DHT22;24023;51.280;7.148;2023-09-08T12:35:06;29.1;65.8
38221;DHT22;24023;51.280;7.148;2023-09-08T12:40:09;29.2;65.3
38221;DHT22;24023;51.280;7.148;2023-09-08T12:45:09;29.2;65.3
38221;DHT22;24023;51.280;7.148;2023-09-08T12:50:09;29.2;65.3
38221;DHT22;24023;51.280;7.148;2023-09-08T12:55:07;29.1;65.6
38221;DHT22;24023;51.280;7.148;2023-09-08T13:00:13;29.1;65.6
38221;DHT22;24023;51.280;7.148;2023-09-08T13:05:05;29.3;64.0
38221;DHT22;24023;51.280;7.148;2023-09-08T13:10:08;29.3;64.0
38221;DHT22;24023;51.280;7.148;2023-09-08T13:15:08;29.3;64.0
38221;DHT22;24023;51.280;7.148;2023-09-08T13:20:08;30.2;64.1
38221;DHT22;24023;51.280;7.148;2023-09-08T13:25:06;30.2;64.1
38221;DHT22;24023;51.280;7.148;2023-09-08T13:30:10;30.9;63.6
38221;DHT22;24023;51.280;7.148;2023-09-08T13:35:06;30.9;63.6
38221;DHT22;24023;51.280;7.148;2023-09-08T13:40:08;30.9;63.6
38221;DHT22;24023;51.280;7.148;2023-09-08T13:45:10;32.0;62.0
38221;DHT22;24023;51.280;7.148;2023-09-08T13:50:09;32.0;62.0
38221;DHT22;24023;51.280;7.148;2023-09-08T13:55:06;32.5;63.1
38221;DHT22;24023;51.280;7.148;2023-09-08T14:00:13;32.9;60.2
38221;DHT22;24023;51.280;7.148;2023-09-08T14:05:06;33.1;59.8
38221;DHT22;24023;51.280;7.148;2023-09-08T14:10:08;33.2;60.5
38221;DHT22;24023;51.280;7.148;2023-09-08T14:15:08;32.4;60.6
38221;DHT22;24023;51.280;7.148;2023-09-08T14:20:09;32.4;60.6
38221;DHT22;24023;51.280;7.148;2023-09-08T14:25:06;32.4;60.6
38221;DHT22;24023;51.280;7.148;2023-09-08T14:30:09;33.1;59.3
38221;DHT22;24023;51.280;7.148;2023-09-08T14:35:07;31.5;61.8
38221;DHT22;24023;51.280;7.148;2023-09-08T14:40:08;30.6;63.3
38221;DHT22;24023;51.280;7.148;2023-09-08T14:45:10;29.8;65.4
38221;DHT22;24023;51.280;7.148;2023-09-08T14:50:08;29.4;65.9
38221;DHT22;24023;51.280;7.148;2023-09-08T14:55:06;29.4;65.9
38221;DHT22;24023;51.280;7.148;2023-09-08T15:00:13;28.9;68.5
38221;DHT22;24023;51.280;7.148;2023-09-08T15:05:06;28.6;66.0
38221;DHT22;24023;51.280;7.148;2023-09-08T15:10:07;28.4;68.1
38221;DHT22;24023;51.280;7.148;2023-09-08T15:15:08;28.4;68.1
38221;DHT22;24023;51.280;7.148;2023-09-08T15:20:09;28.4;68.1
38221;DHT22;24023;51.280;7.148;2023-09-08T15:25:06;27.8;68.3
38221;DHT22;24023;51.280;7.148;2023-09-08T15:30:10;27.8;68.3
38221;DHT22;24023;51.280;7.148;2023-09-08T15:35:06;27.8;68.3
38221;DHT22;24023;51.280;7.148;2023-09-08T15:40:14;27.9;68.7
38221;DHT22;24023;51.280;7.148;2023-09-08T15:45:10;27.6;72.5
38221;DHT22;24023;51.280;7.148;2023-09-08T15:50:09;27.1;74.8
38221;DHT22;24023;51.280;7.148;2023-09-08T15:55:06;26.8;76.9
38221;DHT22;24023;51.280;7.148;2023-09-08T16:00:14;26.6;76.4
38221;DHT22;24023;51.280;7.148;2023-09-08T16:05:06;26.6;78.3
38221;DHT22;24023;51.280;7.148;2023-09-08T16:10:08;26.1;80.7
38221;DHT22;24023;51.280;7.148;2023-09-08T16:15:07;26.1;78.9
38221;DHT22;24023;51.280;7.148;2023-09-08T16:20:08;25.9;79.0
38221;DHT22;24023;51.280;7.148;2023-09-08T16:25:06;25.8;81.5
38221;DHT22;24023;51.280;7.148;2023-09-08T16:30:10;25.8;81.5
38221;DHT22;24023;51.280;7.148;2023-09-08T16:35:06;25.4;82.6
38221;DHT22;24023;51.280;7.148;2023-09-08T16:40:08;25.4;82.1
38221;DHT22;24023;51.280;7.148;2023-09-08T16:45:09;25.4;82.1
38221;DHT22;24023;51.280;7.148;2023-09-08T16:50:08;25.2;84.5
38221;DHT22;24023;51.280;7.148;2023-09-08T16:55:11;25.2;84.5
38221;DHT22;24023;51.280;7.148;2023-09-08T17:00:13;24.9;85.8
38221;DHT22;24023;51.280;7.148;2023-09-08T17:05:06;24.7;88.3
38221;DHT22;24023;51.280;7.148;2023-09-08T17:10:07;24.7;88.3
38221;DHT22;24023;51.280;7.148;2023-09-08T17:15:08;24.7;88.3
38221;DHT22;24023;51.280;7.148;2023-09-08T17:20:08;24.2;88.5
38221;DHT22;24023;51.280;7.148;2023-09-08T17:25:06;24.2;88.5
38221;DHT22;24023;51.280;7.148;2023-09-08T17:30:10;23.9;89.1
38221;DHT22;24023;51.280;7.148;2023-09-08T17:35:07;23.9;89.1
38221;DHT22;24023;51.280;7.148;2023-09-08T17:40:08;23.9;89.1
38221;DHT22;24023;51.280;7.148;2023-09-08T17:45:16;23.5;90.2
38221;DHT22;24023;51.280;7.148;2023-09-08T17:50:09;23.5;90.2
38221;DHT22;24023;51.280;7.148;2023-09-08T17:55:07;23.4;90.5
38221;DHT22;24023;51.280;7.148;2023-09-08T18:00:15;23.4;90.5
38221;DHT22;24023;51.280;7.148;2023-09-08T18:05:07;23.4;90.5
38221;DHT22;24023;51.280;7.148;2023-09-08T18:10:08;22.9;91.0
38221;DHT22;24023;51.280;7.148;2023-09-08T18:15:08;22.9;91.0
38221;DHT22;24023;51.280;7.148;2023-09-08T18:20:08;22.8;90.7
38221;DHT22;24023;51.280;7.148;2023-09-08T18:25:06;22.8;90.7
38221;DHT22;24023;51.280;7.148;2023-09-08T18:30:09;22.8;91.2
38221;DHT22;24023;51.280;7.148;2023-09-08T18:35:06;22.8;91.2
38221;DHT22;24023;51.280;7.148;2023-09-08T18:40:08;22.8;91.2
38221;DHT22;24023;51.280;7.148;2023-09-08T18:45:09;22.5;91.1
38221;DHT22;24023;51.280;7.148;2023-09-08T18:50:08;22.5;91.1
38221;DHT22;24023;51.280;7.148;2023-09-08T18:55:07;22.4;91.5
38221;DHT22;24023;51.280;7.148;2023-09-08T19:00:15;22.4;91.5
38221;DHT22;24023;51.280;7.148;2023-09-08T19:05:07;22.4;91.5
38221;DHT22;24023;51.280;7.148;2023-09-08T19:10:08;22.2;91.5
38221;DHT22;24023;51.280;7.148;2023-09-08T19:15:08;22.2;91.5
38221;DHT22;24023;51.280;7.148;2023-09-08T19:20:08;21.9;91.9
38221;DHT22;24023;51.280;7.148;2023-09-08T19:25:07;21.9;91.9
38221;DHT22;24023;51.280;7.148;2023-09-08T19:30:11;21.9;91.9
38221;DHT22;24023;51.280;7.148;2023-09-08T19:35:07;22.0;91.9
38221;DHT22;24023;51.280;7.148;2023-09-08T19:40:08;22.0;91.9
38221;DHT22;24023;51.280;7.148;2023-09-08T19:45:09;21.9;92.1
38221;DHT22;24023;51.280;7.148;2023-09-08T19:50:08;21.8;92.1
38221;DHT22;24023;51.280;7.148;2023-09-08T19:55:06;21.8;92.1
38221;DHT22;24023;51.280;7.148;2023-09-08T20:00:12;21.9;91.9
38221;DHT22;24023;51.280;7.148;2023-09-08T20:05:06;21.9;91.9
38221;DHT22;24023;51.280;7.148;2023-09-08T20:10:08;21.9;91.9
38221;DHT22;24023;51.280;7.148;2023-09-08T20:15:08;21.7;92.2
38221;DHT22;24023;51.280;7.148;2023-09-08T20:20:08;21.7;92.2
38221;DHT22;24023;51.280;7.148;2023-09-08T20:25:07;21.5;92.5
38221;DHT22;24023;51.280;7.148;2023-09-08T20:30:10;21.5;92.5
38221;DHT22;24023;51.280;7.148;2023-09-08T20:35:06;21.5;92.5
38221;DHT22;24023;51.280;7.148;2023-09-08T20:40:08;21.6;92.2
38221;DHT22;24023;51.280;7.148;2023-09-08T20:45:09;21.6;92.2
38221;DHT22;24023;51.280;7.148;2023-09-08T20:50:08;21.3;92.6
38221;DHT22;24023;51.280;7.148;2023-09-08T20:55:06;21.3;92.6
38221;DHT22;24023;51.280;7.148;2023-09-08T21:00:13;21.2;92.7
38221;DHT22;24023;51.280;7.148;2023-09-08T21:05:06;21.2;92.7
38221;DHT22;24023;51.280;7.148;2023-09-08T21:10:08;21.5;92.4
38221;DHT22;24023;51.280;7.148;2023-09-08T21:15:07;21.5;92.4
38221;DHT22;24023;51.280;7.148;2023-09-08T21:20:08;21.5;92.4
38221;DHT22;24023;51.280;7.148;2023-09-08T21:25:06;21.2;92.6
38221;DHT22;24023;51.280;7.148;2023-09-08T21:30:10;21.2;92.6
38221;DHT22;24023;51.280;7.148;2023-09-08T21:35:07;21.5;91.8
38221;DHT22;24023;51.280;7.148;2023-09-08T21:40:09;21.5;91.8
38221;DHT22;24023;51.280;7.148;2023-09-08T21:45:10;21.5;91.8
38221;DHT22;24023;51.280;7.148;2023-09-08T21:50:08;21.3;92.0
38221;DHT22;24023;51.280;7.148;2023-09-08T21:55:07;21.3;92.0
38221;DHT22;24023;51.280;7.148;2023-09-08T22:00:21;21.3;91.6
38221;DHT22;24023;51.280;7.148;2023-09-08T22:05:09;21.3;91.6
38221;DHT22;24023;51.280;7.148;2023-09-08T22:10:08;21.3;91.6
38221;DHT22;24023;51.280;7.148;2023-09-08T22:15:08;21.3;91.5
38221;DHT22;24023;51.280;7.148;2023-09-08T22:20:13;21.3;91.5
38221;DHT22;24023;51.280;7.148;2023-09-08T22:25:07;21.1;91.1
38221;DHT22;24023;51.280;7.148;2023-09-08T22:30:10;21.1;91.1
38221;DHT22;24023;51.280;7.148;2023-09-08T22:35:06;21.1;91.1
38221;DHT22;24023;51.280;7.148;2023-09-08T22:40:10;21.0;91.5
38221;DHT22;24023;51.280;7.148;2023-09-08T22:45:10;21.0;91.5
38221;DHT22;24023;51.280;7.148;2023-09-08T22:50:10;20.8;91.3
38221;DHT22;24023;51.280;7.148;2023-09-08T22:55:09;20.8;91.3
38221;DHT22;24023;51.280;7.148;2023-09-08T23:00:13;20.7;91.4
38221;DHT22;24023;51.280;7.148;2023-09-08T23:05:06;20.7;91.4
38221;DHT22;24023;51.280;7.148;2023-09-08T23:10:08;20.7;91.4
38221;DHT22;24023;51.280;7.148;2023-09-08T23:15:08;20.7;91.8
38221;DHT22;24023;51.280;7.148;2023-09-08T23:20:08;20.7;91.8
38221;DHT22;24023;51.280;7.148;2023-09-08T23:25:06;20.7;91.5
38221;DHT22;24023;51.280;7.148;2023-09-08T23:30:10;20.7;91.5
38221;DHT22;24023;51.280;7.148;2023-09-08T23:35:07;20.7;91.5
38221;DHT22;24023;51.280;7.148;2023-09-08T23:40:08;20.7;91.3
38221;DHT22;24023;51.280;7.148;2023-09-08T23:45:10;20.7;91.3
38221;DHT22;24023;51.280;7.148;2023-09-08T23:50:08;20.7;91.3
38221;DHT22;24023;51.280;7.148;2023-09-08T23:55:06;20.7;91.3
